Time;durP1;ratioP1;P1;durP2;ratioP2;P2;SDS_P1;SDS_P2;PMS_P1;PMS_P2;Temp;Humidity;BMP_temperature;BMP_pressure;BME280_temperature;BME280_humidity;BME280_pressure;Samples;Min_cycle;Max_cycle;Signal;HPM_P1;HPM_P2
2022/11/16 00:02:19;;;;;;;36.97;18.67;;;;;;;4.82;100.00;100253.00;5053707;28;20132;-83
2022/11/16 00:04:46;;;;;;;38.00;20.83;;;;;;;4.70;100.00;100246.91;5041352;28;20044;-82
2022/11/16 00:07:13;;;;;;;38.13;20.10;;;;;;;4.73;100.00;100253.88;5039701;28;20114;-85
2022/11/16 00:09:39;;;;;;;39.13;18.80;;;;;;;4.75;100.00;100247.75;5042076;28;20048;-85
2022/11/16 00:12:09;;;;;;;40.07;19.30;;;;;;;4.80;100.00;100239.91;5028996;28;20040;-83
2022/11/16 00:14:36;;;;;;;37.07;18.80;;;;;;;4.80;100.00;100230.31;5039938;28;20044;-83
2022/11/16 00:17:03;;;;;;;38.47;19.67;;;;;;;4.67;100.00;100232.97;5040730;28;20517;-84
2022/11/16 00:19:30;;;;;;;36.00;19.43;;;;;;;4.79;100.00;100222.44;5025944;28;20082;-83
2022/11/16 00:21:56;;;;;;;37.53;19.10;;;;;;;4.81;100.00;100241.66;5041593;28;20052;-84
2022/11/16 00:24:23;;;;;;;42.67;19.00;;;;;;;4.66;100.00;100237.34;5042644;28;20039;-87
2022/11/16 00:26:52;;;;;;;40.83;19.53;;;;;;;4.80;100.00;100234.69;5045618;28;20041;-84
2022/11/16 00:29:21;;;;;;;36.53;18.73;;;;;;;4.70;100.00;100233.81;5041117;28;20044;-83
2022/11/16 00:31:49;;;;;;;38.43;18.57;;;;;;;4.78;100.00;100232.03;5047843;28;20058;-84
2022/11/16 00:34:18;;;;;;;36.27;18.00;;;;;;;4.75;100.00;100226.84;5025664;28;20128;-84
2022/11/16 00:36:45;;;;;;;39.03;18.70;;;;;;;4.76;100.00;100210.25;5054346;28;20044;-83
2022/11/16 00:39:13;;;;;;;35.03;19.67;;;;;;;4.83;100.00;100213.72;5023826;28;20040;-83
2022/11/16 00:41:43;;;;;;;35.80;19.23;;;;;;;4.73;100.00;100204.16;5049074;28;20032;-83
2022/11/16 00:44:11;;;;;;;37.87;19.07;;;;;;;4.69;100.00;100200.69;5041789;28;20033;-84
2022/11/16 00:46:38;;;;;;;34.73;18.57;;;;;;;4.82;100.00;100204.13;5043109;28;20398;-84
2022/11/16 00:49:06;;;;;;;34.27;18.83;;;;;;;4.82;100.00;100206.75;5047086;28;20043;-83
2022/11/16 00:51:34;;;;;;;38.17;19.40;;;;;;;4.84;100.00;100191.91;5024946;28;20411;-83
2022/11/16 00:54:01;;;;;;;34.53;18.73;;;;;;;4.87;100.00;100201.47;5057567;28;20508;-85
2022/11/16 00:56:27;;;;;;;36.50;17.33;;;;;;;4.79;100.00;100207.63;5039410;28;20044;-82
2022/11/16 00:58:54;;;;;;;36.37;19.13;;;;;;;4.80;100.00;100213.75;5035508;28;20051;-85
2022/11/16 01:01:21;;;;;;;34.30;18.97;;;;;;;4.78;100.00;100205.00;5041682;28;20474;-84
2022/11/16 01:03:48;;;;;;;36.57;17.97;;;;;;;4.79;100.00;100211.97;5029416;28;20052;-83
2022/11/16 01:06:19;;;;;;;37.43;18.90;;;;;;;4.85;100.00;100209.34;5042967;28;20413;-83
2022/11/16 01:08:45;;;;;;;36.80;19.17;;;;;;;4.84;100.00;100207.59;5029424;28;20051;-84
2022/11/16 01:14:01;;;;;;;33.77;18.57;;;;;;;4.70;100.00;100202.41;5042615;28;20036;-83
2022/11/16 01:16:27;;;;;;;40.97;19.20;;;;;;;4.81;100.00;100205.00;5022175;28;20456;-85
2022/11/16 01:18:55;;;;;;;35.50;17.67;;;;;;;4.90;100.00;100202.34;5038825;28;20078;-85
2022/11/16 01:21:23;;;;;;;40.07;20.53;;;;;;;4.92;100.00;100202.34;5020654;28;20091;-84
2022/11/16 01:23:50;;;;;;;37.83;18.60;;;;;;;4.86;100.00;100191.88;5041120;28;20040;-84
2022/11/16 01:26:17;;;;;;;39.83;19.73;;;;;;;4.86;100.00;100195.38;5055495;28;20047;-84
2022/11/16 01:28:44;;;;;;;40.70;18.70;;;;;;;4.97;100.00;100190.09;5057442;28;20048;-84
2022/11/16 01:31:11;;;;;;;41.13;19.27;;;;;;;4.88;100.00;100191.03;5042226;28;20733;-83
2022/11/16 01:33:38;;;;;;;37.30;18.10;;;;;;;4.90;100.00;100185.78;5045830;28;20387;-84
2022/11/16 01:36:13;;;;;;;39.73;19.23;;;;;;;4.93;100.00;100183.13;5034218;28;20405;-83
2022/11/16 01:38:45;;;;;;;38.23;19.77;;;;;;;4.95;100.00;100186.59;5035381;28;20076;-83
2022/11/16 01:41:13;;;;;;;35.77;19.13;;;;;;;4.84;100.00;100180.56;5049098;28;20483;-85
2022/11/16 01:43:58;;;;;;;37.63;19.07;;;;;;;4.93;100.00;100180.50;5033708;28;20044;-85
2022/11/16 01:46:26;;;;;;;37.93;18.63;;;;;;;4.89;100.00;100176.19;5036284;28;20564;-84
2022/11/16 01:49:05;;;;;;;38.80;18.70;;;;;;;4.90;100.00;100178.78;5055776;28;20044;-83
2022/11/16 01:51:32;;;;;;;37.50;19.90;;;;;;;4.90;100.00;100177.94;5040465;28;20043;-85
2022/11/16 01:54:02;;;;;;;38.40;19.10;;;;;;;4.89;100.00;100177.06;5035201;28;20044;-83
2022/11/16 01:56:30;;;;;;;39.07;18.83;;;;;;;4.88;100.00;100170.09;5056071;28;20041;-84
2022/11/16 01:58:56;;;;;;;40.20;20.20;;;;;;;4.91;100.00;100175.28;5029866;28;20090;-84
2022/11/16 02:01:23;;;;;;;39.80;21.03;;;;;;;4.94;100.00;100169.16;5020423;28;20094;-83
2022/11/16 02:03:50;;;;;;;43.97;20.57;;;;;;;4.93;100.00;100167.44;5036174;28;20117;-83
2022/11/16 02:06:25;;;;;;;39.50;19.97;;;;;;;4.98;100.00;100166.53;5040213;28;20044;-84
2022/11/16 02:12:27;;;;;;;37.60;18.93;;;;;;;5.00;100.00;100162.16;5044927;28;20048;-83
2022/11/16 02:15:01;;;;;;;42.70;20.77;;;;;;;4.99;100.00;100167.41;5046412;28;20037;-84
2022/11/16 02:18:25;;;;;;;41.22;20.33;;;;;;;5.03;100.00;100158.63;5066842;28;20518;-83
2022/11/16 02:21:09;;;;;;;41.13;20.37;;;;;;;5.12;100.00;100162.94;4973076;28;20049;-83
2022/11/16 02:24:00;;;;;;;45.42;21.92;;;;;;;5.14;100.00;100158.59;4970019;28;20042;-83
2022/11/16 02:26:49;;;;;;;44.70;20.43;;;;;;;5.04;100.00;100161.28;5025553;28;21497;-85
2022/11/16 02:29:46;;;;;;;44.00;22.90;;;;;;;5.04;100.00;100147.28;5050283;28;20041;-86
2022/11/16 02:32:31;;;;;;;43.47;21.00;;;;;;;5.07;100.00;100147.28;5030023;28;20077;-86
2022/11/16 02:35:23;;;;;;;48.37;21.93;;;;;;;5.09;100.00;100142.91;5042163;28;20734;-85
2022/11/16 02:37:55;;;;;;;45.70;19.90;;;;;;;5.20;100.00;100151.53;5027164;28;20037;-85
2022/11/16 02:40:23;;;;;;;44.20;22.17;;;;;;;5.16;100.00;100154.22;5017392;28;20555;-85
2022/11/16 02:42:53;;;;;;;46.57;21.57;;;;;;;5.18;100.00;100152.44;5014565;28;20497;-84
2022/11/16 02:45:28;;;;;;;42.40;21.27;;;;;;;5.18;100.00;100147.19;5102834;23;20273;-80
2022/11/16 02:48:00;;;;;;;44.40;21.30;;;;;;;5.23;100.00;100148.91;5047720;28;20064;-81
2022/11/16 02:50:27;;;;;;;42.53;22.00;;;;;;;5.24;100.00;100157.66;5020269;28;20062;-81
2022/11/16 02:52:54;;;;;;;44.97;22.40;;;;;;;5.14;100.00;100141.13;5026608;28;20450;-81
2022/11/16 02:55:22;;;;;;;51.27;23.30;;;;;;;5.11;100.00;100137.63;5046484;28;20047;-80
2022/11/16 02:57:54;;;;;;;49.13;23.67;;;;;;;5.18;100.00;100126.25;5064324;28;20040;-80
2022/11/16 03:00:24;;;;;;;44.90;20.63;;;;;;;5.18;100.00;100121.88;5040534;28;20037;-81
2022/11/16 03:03:12;;;;;;;52.17;24.03;;;;;;;5.24;100.00;100119.22;5028339;28;20400;-80
2022/11/16 03:05:54;;;;;;;49.37;24.07;;;;;;;5.31;100.00;100115.69;5051007;28;20071;-81
2022/11/16 03:08:24;;;;;;;50.50;24.27;;;;;;;5.26;100.00;100119.22;5067584;28;20076;-81
2022/11/16 03:13:47;;;;;;;47.13;20.92;;;;;;;5.11;100.00;100114.94;5057553;28;20532;-84
2022/11/16 03:16:19;;;;;;;53.30;25.10;;;;;;;5.16;100.00;100101.84;5038690;28;20052;-80
2022/11/16 03:18:46;;;;;;;52.47;23.50;;;;;;;5.20;100.00;100099.16;5062118;28;20047;-81
2022/11/16 03:21:29;;;;;;;61.90;25.37;;;;;;;5.26;100.00;100103.50;5052122;28;20060;-80
2022/11/16 03:23:56;;;;;;;58.73;26.33;;;;;;;5.20;100.00;100095.69;5070675;28;20040;-81
2022/11/16 03:26:26;;;;;;;57.10;24.07;;;;;;;5.22;100.00;100093.94;5055300;28;20044;-81
2022/11/16 03:29:01;;;;;;;60.83;24.83;;;;;;;5.37;100.00;100094.66;5053463;28;20054;-80
2022/11/16 03:31:38;;;;;;;47.67;22.70;;;;;;;5.28;100.00;100094.75;5058116;28;20062;-80
2022/11/16 03:34:09;;;;;;;62.60;26.67;;;;;;;5.23;100.00;100093.06;5041354;28;20135;-81
2022/11/16 03:36:39;;;;;;;64.87;27.27;;;;;;;5.28;100.00;100099.97;5060944;28;20043;-81
2022/11/16 03:39:10;;;;;;;67.17;28.93;;;;;;;5.27;100.00;100094.75;5094329;28;20165;-80
2022/11/16 03:41:40;;;;;;;54.73;24.40;;;;;;;5.27;100.00;100094.75;5094638;28;20055;-81
2022/11/16 03:44:09;;;;;;;64.70;27.00;;;;;;;5.27;100.00;100092.13;5038608;28;20133;-82
2022/11/16 03:46:37;;;;;;;58.87;24.67;;;;;;;5.36;100.00;100097.28;5061125;28;20040;-81
2022/11/16 03:49:04;;;;;;;61.70;27.03;;;;;;;5.40;100.00;100095.53;5055591;28;20507;-81
2022/11/16 03:51:32;;;;;;;61.70;27.77;;;;;;;5.30;100.00;100092.13;5029324;28;20046;-81
2022/11/16 03:53:58;;;;;;;70.67;28.30;;;;;;;5.29;100.00;100091.22;5052867;28;20040;-81
2022/11/16 03:56:25;;;;;;;63.53;25.77;;;;;;;5.41;100.00;100089.41;5056795;28;20064;-83
2022/11/16 03:58:52;;;;;;;68.13;28.77;;;;;;;5.46;100.00;100083.22;5068225;28;20032;-80
2022/11/16 04:01:19;;;;;;;59.70;27.93;;;;;;;5.28;100.00;100089.50;5046881;28;20044;-80
2022/11/16 04:03:45;;;;;;;73.57;33.13;;;;;;;5.40;100.00;100085.06;5023129;28;20494;-82
2022/11/16 04:24:10;;;;;;;71.53;29.23;;;;;;;5.41;100.00;100090.28;5038298;28;20486;-81
2022/11/16 04:25:47;;;;;;;77.77;29.90;;;;;;;5.50;100.00;100084.97;5053931;28;20089;-82
2022/11/16 04:28:15;;;;;;;74.37;30.70;;;;;;;5.44;100.00;100090.25;5043520;28;20044;-80
2022/11/16 04:37:47;;;;;;;79.57;30.67;;;;;;;5.54;100.00;100080.53;5073463;28;20217;-80
2022/11/16 04:39:05;;;;;;;75.30;31.97;;;;;;;5.53;100.00;100082.28;5061333;28;20045;-81
2022/11/16 04:44:18;;;;;;;76.50;30.50;;;;;;;5.60;100.00;100083.13;5077280;28;20044;-80
2022/11/16 04:49:29;;;;;;;72.10;29.93;;;;;;;5.70;100.00;100073.41;5041570;28;20485;-80
2022/11/16 04:51:56;;;;;;;66.13;28.70;;;;;;;5.72;100.00;100077.78;5072245;28;20060;-80
2022/11/16 04:54:23;;;;;;;72.37;28.13;;;;;;;5.73;100.00;100068.16;5055518;28;20044;-81
2022/11/16 04:56:49;;;;;;;74.03;28.37;;;;;;;5.68;100.00;100073.44;5045114;28;20028;-80
2022/11/16 04:59:16;;;;;;;78.33;28.60;;;;;;;5.67;100.00;100068.22;5066117;28;20032;-80
2022/11/16 05:04:28;;;;;;;69.83;28.97;;;;;;;5.63;100.00;100054.25;5053600;28;20043;-80
2022/11/16 05:06:55;;;;;;;64.33;26.07;;;;;;;5.79;100.00;100055.81;5022134;28;20036;-80
2022/11/16 05:09:21;;;;;;;61.27;25.33;;;;;;;5.82;100.00;100052.31;5053929;28;20512;-81
2022/11/16 05:11:49;;;;;;;63.73;27.43;;;;;;;5.76;100.00;100049.75;5045235;28;20040;-80
2022/11/16 05:14:15;;;;;;;56.27;25.63;;;;;;;5.75;100.00;100045.41;5061061;28;20065;-80
2022/11/16 05:16:42;;;;;;;57.87;23.73;;;;;;;5.64;100.00;100053.41;5068591;28;20382;-80
2022/11/16 05:21:54;;;;;;;58.70;25.13;;;;;;;5.69;100.00;100040.22;5040698;28;20567;-80
2022/11/16 05:24:33;;;;;;;58.97;23.37;;;;;;;5.61;100.00;100043.78;5039517;28;20075;-81
2022/11/16 05:27:05;;;;;;;67.30;23.97;;;;;;;5.73;100.00;100039.31;5057040;28;20511;-80
2022/11/16 05:29:32;;;;;;;48.50;23.00;;;;;;;5.54;100.00;100051.72;5052386;28;20052;-80
2022/11/16 05:31:59;;;;;;;59.20;25.30;;;;;;;5.71;100.00;100051.56;5020259;28;20543;-80
2022/11/16 05:34:26;;;;;;;53.57;23.83;;;;;;;5.72;100.00;100055.91;5022271;28;20136;-80
2022/11/16 05:36:53;;;;;;;59.53;24.23;;;;;;;5.64;100.00;100056.88;5054492;28;20040;-80
2022/11/16 05:39:20;;;;;;;58.27;24.67;;;;;;;5.73;100.00;100057.66;5022702;28;20044;-80
2022/11/16 05:41:47;;;;;;;54.23;22.20;;;;;;;5.76;100.00;100058.50;5042192;28;20044;-80
2022/11/16 05:44:14;;;;;;;54.10;23.50;;;;;;;5.78;100.00;100059.34;5037910;28;20086;-80
2022/11/16 05:46:41;;;;;;;50.07;22.17;;;;;;;5.73;100.00;100058.53;5054040;28;20036;-82
2022/11/16 05:49:08;;;;;;;59.20;22.63;;;;;;;5.81;100.00;100056.69;5081350;28;20094;-80
2022/11/16 05:51:35;;;;;;;51.47;22.37;;;;;;;5.69;100.00;100059.44;5051626;28;20093;-81
2022/11/16 05:54:03;;;;;;;55.50;23.10;;;;;;;5.72;100.00;100064.66;5085795;28;20064;-80
2022/11/16 05:56:30;;;;;;;51.20;22.80;;;;;;;5.62;100.00;100060.38;5019271;28;20037;-80
2022/11/16 05:58:57;;;;;;;49.97;22.97;;;;;;;5.73;100.00;100057.66;5072477;28;20160;-81
2022/11/16 06:01:24;;;;;;;51.00;25.20;;;;;;;5.73;100.00;100065.53;5022378;28;20045;-80
2022/11/16 06:03:51;;;;;;;57.60;23.60;;;;;;;5.73;100.00;100068.16;5040586;28;20043;-79
2022/11/16 06:06:19;;;;;;;59.00;25.17;;;;;;;5.71;100.00;100073.38;5021270;28;20045;-80
2022/11/16 06:08:46;;;;;;;58.77;23.83;;;;;;;5.69;100.00;100066.44;5087209;28;20071;-80
2022/11/16 06:11:12;;;;;;;62.93;24.10;;;;;;;5.76;100.00;100068.97;5068403;28;20478;-79
2022/11/16 06:13:39;;;;;;;66.90;24.30;;;;;;;5.78;100.00;100067.19;5062646;28;20760;-82
2022/11/16 06:16:06;;;;;;;60.50;23.57;;;;;;;5.70;100.00;100065.53;5045976;28;20037;-80
2022/11/16 06:18:36;;;;;;;59.77;25.67;;;;;;;5.74;100.00;100060.28;5090128;28;20036;-80
2022/11/16 06:21:03;;;;;;;58.20;24.63;;;;;;;5.76;100.00;100062.88;5052411;28;20033;-79
2022/11/16 06:23:29;;;;;;;63.83;24.30;;;;;;;5.68;100.00;100059.47;5030550;28;20466;-80
2022/11/16 06:25:56;;;;;;;66.20;27.03;;;;;;;5.78;100.00;100068.97;5014616;28;20037;-82
2022/11/16 06:28:23;;;;;;;54.83;25.10;;;;;;;5.76;100.00;100062.88;5070047;28;20416;-81
2022/11/16 06:30:49;;;;;;;57.70;24.67;;;;;;;5.77;100.00;100070.72;5065523;28;20052;-80
2022/11/16 06:33:16;;;;;;;65.73;25.60;;;;;;;5.77;100.00;100072.47;5025167;28;20121;-81
2022/11/16 06:35:43;;;;;;;63.17;26.03;;;;;;;5.63;100.00;100080.44;5031779;28;20059;-82
2022/11/16 06:38:12;;;;;;;64.43;25.30;;;;;;;5.60;100.00;100081.34;5048079;28;20041;-82
2022/11/16 06:40:39;;;;;;;55.33;23.67;;;;;;;5.55;100.00;100085.78;5019951;28;20051;-82
2022/11/16 06:43:05;;;;;;;64.57;25.33;;;;;;;5.62;100.00;100090.06;5019350;28;20086;-82
2022/11/16 06:45:32;;;;;;;59.10;23.47;;;;;;;5.58;100.00;100084.88;5031156;28;20083;-81
2022/11/16 06:47:59;;;;;;;58.90;25.33;;;;;;;5.68;100.00;100081.28;5032521;28;20120;-81
2022/11/16 06:50:25;;;;;;;60.53;25.17;;;;;;;5.59;100.00;100089.25;5064756;28;20052;-83
2022/11/16 06:52:52;;;;;;;57.67;25.47;;;;;;;5.54;100.00;100088.41;5035009;28;20069;-82
2022/11/16 06:55:19;;;;;;;62.03;23.73;;;;;;;5.47;100.00;100081.50;5036522;28;20416;-81
2022/11/16 06:57:46;;;;;;;57.87;24.17;;;;;;;5.58;100.00;100082.25;5052221;28;20520;-83
2022/11/16 07:00:13;;;;;;;55.20;23.00;;;;;;;5.70;100.00;100090.00;5020254;28;20048;-83
2022/11/16 07:02:40;;;;;;;49.57;22.27;;;;;;;5.57;100.00;100081.41;5023068;28;20040;-81
2022/11/16 07:05:07;;;;;;;51.83;21.87;;;;;;;5.52;100.00;100080.56;5072839;28;20044;-81
2022/11/16 07:07:33;;;;;;;50.07;21.70;;;;;;;5.63;100.00;100097.06;5089247;28;20436;-83
2022/11/16 07:10:00;;;;;;;48.53;21.67;;;;;;;5.60;100.00;100097.09;5056686;28;20040;-83
2022/11/16 07:12:27;;;;;;;54.73;22.83;;;;;;;5.61;100.00;100095.31;5057511;28;20060;-81
2022/11/16 07:14:54;;;;;;;46.70;20.83;;;;;;;5.68;100.00;100102.25;5039396;28;20055;-82
2022/11/16 07:17:20;;;;;;;43.40;20.90;;;;;;;5.56;100.00;100103.25;5053940;28;20046;-81
2022/11/16 07:19:47;;;;;;;44.20;20.50;;;;;;;5.65;100.00;100091.81;5032498;28;20572;-81
2022/11/16 07:22:14;;;;;;;47.37;20.13;;;;;;;5.64;100.00;100088.31;5039598;28;20066;-82
2022/11/16 07:24:40;;;;;;;45.40;19.33;;;;;;;5.69;100.00;100090.88;5040130;28;20512;-83
2022/11/16 07:27:07;;;;;;;48.43;21.07;;;;;;;5.65;100.00;100091.81;5055800;28;20056;-82
2022/11/16 07:29:34;;;;;;;43.87;20.47;;;;;;;5.65;100.00;100092.69;5039262;28;20048;-82
2022/11/16 07:32:01;;;;;;;44.07;20.80;;;;;;;5.49;100.00;100096.31;5023222;28;20460;-82
2022/11/16 07:34:27;;;;;;;49.50;21.53;;;;;;;5.54;100.00;100104.13;5039618;28;20537;-81
2022/11/16 07:36:54;;;;;;;44.93;20.00;;;;;;;5.51;100.00;100106.78;5018661;28;20045;-81
2022/11/16 07:39:21;;;;;;;54.50;22.90;;;;;;;5.59;100.00;100105.84;5051485;28;20428;-82
2022/11/16 07:41:51;;;;;;;45.20;20.77;;;;;;;5.60;100.00;100104.06;5055695;28;20602;-82
2022/11/16 07:44:19;;;;;;;38.90;19.90;;;;;;;5.65;100.00;100097.91;5018997;28;20486;-82
2022/11/16 07:46:45;;;;;;;43.67;21.23;;;;;;;5.59;100.00;100104.97;5056270;28;20089;-82
2022/11/16 07:49:15;;;;;;;38.77;20.57;;;;;;;5.61;100.00;100113.66;5025706;28;20047;-82
2022/11/16 07:51:42;;;;;;;51.33;20.97;;;;;;;5.64;100.00;100100.56;5076185;28;20032;-82
2022/11/16 07:54:12;;;;;;;43.00;20.73;;;;;;;5.62;100.00;100103.16;5048624;28;20040;-83
2022/11/16 07:56:39;;;;;;;43.17;19.97;;;;;;;5.76;100.00;100099.56;5040045;28;20091;-82
2022/11/16 07:59:06;;;;;;;49.23;21.87;;;;;;;5.70;100.00;100103.09;5054365;28;20045;-81
2022/11/16 08:01:33;;;;;;;42.23;20.90;;;;;;;5.78;100.00;100100.41;5040453;28;20036;-82
2022/11/16 08:04:03;;;;;;;42.53;21.20;;;;;;;5.67;100.00;100115.38;5070960;28;20075;-82
2022/11/16 08:06:30;;;;;;;44.10;19.83;;;;;;;5.80;100.00;100111.75;5052988;28;20048;-82
2022/11/16 08:08:57;;;;;;;38.20;18.83;;;;;;;5.72;100.00;100119.69;5061812;28;20047;-81
2022/11/16 08:11:24;;;;;;;41.87;18.47;;;;;;;5.61;100.00;100114.53;5029039;28;20517;-82
2022/11/16 08:13:54;;;;;;;40.47;18.87;;;;;;;5.76;100.00;100110.91;5036680;28;20501;-82
2022/11/16 08:16:21;;;;;;;44.20;19.30;;;;;;;5.71;100.00;100101.34;5035059;28;20037;-82
2022/11/16 08:18:48;;;;;;;40.20;18.60;;;;;;;5.76;100.00;100108.28;5071594;28;20040;-83
2022/11/16 08:21:16;;;;;;;39.80;19.90;;;;;;;5.71;100.00;100109.22;5071753;28;20101;-81
2022/11/16 08:23:44;;;;;;;47.20;18.93;;;;;;;5.72;100.00;100113.56;5038876;28;20369;-83
2022/11/16 08:26:14;;;;;;;37.87;18.60;;;;;;;5.63;100.00;100109.28;5027911;28;20045;-82
2022/11/16 08:28:42;;;;;;;40.13;20.03;;;;;;;5.52;100.00;100114.63;5044692;28;20051;-83
2022/11/16 08:31:11;;;;;;;45.07;19.83;;;;;;;5.71;100.00;100111.84;5022137;28;21001;-83
2022/11/16 08:33:38;;;;;;;37.70;18.03;;;;;;;5.60;100.00;100115.44;5050244;28;20043;-82
2022/11/16 08:36:07;;;;;;;38.57;17.60;;;;;;;5.56;100.00;100121.59;5045414;28;20036;-81
2022/11/16 08:38:39;;;;;;;45.80;18.70;;;;;;;5.62;100.00;100116.28;5043655;28;20052;-82
2022/11/16 08:41:06;;;;;;;37.93;18.27;;;;;;;5.63;100.00;100115.41;5087702;28;20101;-83
2022/11/16 08:43:34;;;;;;;38.03;18.67;;;;;;;5.68;100.00;100117.13;5051380;28;20041;-83
2022/11/16 08:46:01;;;;;;;41.50;19.23;;;;;;;5.74;100.00;100115.31;5044314;28;20046;-81
2022/11/16 08:48:28;;;;;;;37.87;17.67;;;;;;;5.74;100.00;100114.44;5036660;28;20040;-82
2022/11/16 08:51:01;;;;;;;38.83;18.23;;;;;;;5.82;100.00;100117.88;5035906;28;20047;-83
2022/11/16 08:53:43;;;;;;;38.00;18.67;;;;;;;5.69;100.00;100122.34;5039576;28;20047;-82
2022/11/16 08:56:12;;;;;;;40.77;18.80;;;;;;;5.71;100.00;100106.59;5087596;28;20032;-81
2022/11/16 08:58:42;;;;;;;36.43;16.97;;;;;;;5.78;100.00;100110.88;5126893;22;20434;-83
2022/11/16 09:01:10;;;;;;;35.97;16.73;;;;;;;5.80;100.00;100119.59;5080210;27;20031;-83
2022/11/16 09:03:37;;;;;;;41.00;18.23;;;;;;;5.80;100.00;100123.13;5078155;27;20113;-83
2022/11/16 09:06:05;;;;;;;38.93;18.37;;;;;;;5.79;100.00;100123.97;5079224;27;20682;-84
2022/11/16 09:08:32;;;;;;;35.97;17.17;;;;;;;5.59;100.00;100125.94;5077284;27;20124;-85
2022/11/16 09:11:03;;;;;;;36.67;18.03;;;;;;;5.66;100.00;100117.13;5111510;27;20027;-85
2022/11/16 09:13:29;;;;;;;37.13;17.70;;;;;;;5.77;100.00;100115.28;5085573;27;20495;-85
2022/11/16 09:16:00;;;;;;;36.10;16.70;;;;;;;5.83;100.00;100119.59;5091119;28;20416;-84
2022/11/16 09:18:27;;;;;;;36.37;18.07;;;;;;;5.85;100.00;100105.56;5080914;27;20109;-84
2022/11/16 09:20:54;;;;;;;32.70;16.17;;;;;;;5.80;100.00;100102.16;5081177;27;20039;-85
2022/11/16 09:23:21;;;;;;;35.80;16.40;;;;;;;5.76;100.00;100104.81;5081286;28;20108;-84
2022/11/16 09:25:51;;;;;;;39.13;17.13;;;;;;;5.84;100.00;100103.84;5091583;27;20035;-84
2022/11/16 09:28:19;;;;;;;34.73;16.17;;;;;;;5.81;100.00;100095.16;5073642;27;20041;-84
2022/11/16 09:30:47;;;;;;;29.37;15.00;;;;;;;5.85;100.00;100100.34;5076667;27;20536;-85
2022/11/16 09:33:14;;;;;;;39.27;17.13;;;;;;;5.92;100.00;100090.69;5095254;27;20449;-85
2022/11/16 09:35:41;;;;;;;42.97;19.63;;;;;;;5.98;100.00;100093.25;5081560;27;20123;-85
2022/11/16 09:38:11;;;;;;;36.57;15.73;;;;;;;5.98;100.00;100093.25;5108413;28;20063;-85
2022/11/16 09:40:47;;;;;;;31.37;15.50;;;;;;;5.95;100.00;100090.66;5109035;28;20035;-83
2022/11/16 09:43:42;;;;;;;33.80;15.70;;;;;;;5.93;100.00;100088.03;5111107;27;20039;-83
2022/11/16 09:46:33;;;;;;;32.10;16.17;;;;;;;6.04;100.00;100087.06;5097852;27;20126;-83
2022/11/16 09:49:02;;;;;;;30.23;15.13;;;;;;;5.99;100.00;100081.00;5112115;27;20047;-83
2022/11/16 09:51:31;;;;;;;31.30;15.83;;;;;;;5.93;100.00;100085.44;5078113;27;20035;-84
2022/11/16 09:54:04;;;;;;;29.57;15.93;;;;;;;6.00;100.00;100077.50;5111329;27;20068;-83
2022/11/16 09:56:36;;;;;;;29.67;14.70;;;;;;;5.90;100.00;100090.72;5111928;27;20067;-83
2022/11/16 09:59:13;;;;;;;30.97;14.40;;;;;;;6.00;100.00;100078.38;5086585;27;20035;-83
2022/11/16 10:01:47;;;;;;;32.07;14.67;;;;;;;6.09;100.00;100078.25;5091549;27;20035;-84
2022/11/16 10:04:53;;;;;;;30.20;14.23;;;;;;;6.13;100.00;100074.69;5077879;28;20035;-84
2022/11/16 10:07:41;;;;;;;25.43;13.07;;;;;;;6.11;100.00;100073.00;5070911;27;20459;-84
2022/11/16 10:10:15;;;;;;;29.05;13.45;;;;;;;6.14;100.00;100067.72;5081014;27;20043;-84
2022/11/16 10:12:53;;;;;;;27.63;14.40;;;;;;;6.13;100.00;100060.72;5081447;27;20054;-84
2022/11/16 10:15:25;;;;;;;31.97;14.93;;;;;;;6.10;100.00;100058.16;5098458;27;20096;-84
2022/11/16 10:17:55;;;;;;;27.57;12.77;;;;;;;6.19;100.00;100056.28;5076654;28;20527;-84
2022/11/16 10:20:53;;;;;;;25.33;11.83;;;;;;;6.19;100.00;100052.78;5107753;27;20039;-84
2022/11/16 10:23:36;;;;;;;24.83;12.53;;;;;;;6.27;100.00;100045.69;5080382;28;20035;-84
2022/11/16 10:26:26;;;;;;;20.50;10.30;;;;;;;6.10;100.00;100047.66;5072123;27;20039;-84
2022/11/16 10:29:10;;;;;;;22.50;11.73;;;;;;;6.24;100.00;100045.75;5087209;28;20453;-84
2022/11/16 10:32:01;;;;;;;23.63;11.93;;;;;;;6.17;100.00;100050.19;5093390;28;20047;-84
2022/11/16 10:34:32;;;;;;;19.73;12.73;;;;;;;6.21;100.00;100041.38;5093955;28;20116;-83
2022/11/16 10:37:02;;;;;;;22.37;12.10;;;;;;;6.23;100.00;100041.38;5060492;28;20089;-83
2022/11/16 10:39:30;;;;;;;20.90;10.70;;;;;;;6.31;100.00;100038.66;5077340;28;20120;-83
2022/11/16 10:42:00;;;;;;;21.07;10.87;;;;;;;6.31;100.00;100034.28;5076740;28;20068;-83
2022/11/16 10:44:37;;;;;;;24.50;12.17;;;;;;;6.28;100.00;100028.19;5082181;28;20062;-83
2022/11/16 10:47:27;;;;;;;22.27;10.40;;;;;;;6.40;100.00;100025.44;5079994;28;20038;-83
2022/11/16 10:50:02;;;;;;;23.93;11.27;;;;;;;6.33;100.00;100026.38;5081815;28;20046;-83
2022/11/16 10:52:29;;;;;;;21.90;11.07;;;;;;;6.29;100.00;100029.94;5081537;28;20071;-83
2022/11/16 10:54:56;;;;;;;21.03;11.63;;;;;;;6.24;100.00;100029.13;5088286;28;20039;-82
2022/11/16 10:57:25;;;;;;;20.43;10.57;;;;;;;6.25;100.00;100020.38;5079870;28;20127;-83
2022/11/16 10:59:57;;;;;;;21.57;10.50;;;;;;;6.26;100.00;100025.59;5097888;28;20116;-83
2022/11/16 11:02:34;;;;;;;22.17;10.50;;;;;;;6.23;100.00;100019.53;5082370;28;20071;-83
2022/11/16 11:05:21;;;;;;;19.10;10.47;;;;;;;6.29;100.00;100019.44;5060497;28;20697;-84
2022/11/16 11:08:01;;;;;;;24.23;11.57;;;;;;;6.34;100.00;100025.50;5059676;28;20039;-83
2022/11/16 11:10:30;;;;;;;20.20;11.00;;;;;;;6.29;100.00;100027.31;5077065;28;20040;-82
2022/11/16 11:13:10;;;;;;;20.80;10.83;;;;;;;6.24;100.00;100029.13;5081973;28;20412;-85
2022/11/16 11:15:39;;;;;;;21.57;11.67;;;;;;;6.41;100.00;100017.53;5097295;28;20035;-87
2022/11/16 11:18:22;;;;;;;20.97;11.17;;;;;;;6.34;100.00;100018.50;5075528;28;20032;-84
2022/11/16 11:21:05;;;;;;;21.77;12.07;;;;;;;6.29;100.00;100022.06;5095382;28;20159;-84
2022/11/16 11:23:41;;;;;;;18.63;11.10;;;;;;;6.42;100.00;100021.00;5094843;28;20044;-84
2022/11/16 11:26:23;;;;;;;20.87;11.30;;;;;;;6.40;100.00;100018.41;5078041;28;20126;-84
2022/11/16 11:28:50;;;;;;;23.97;17.90;;;;;;;6.45;100.00;100015.72;5069959;28;20050;-83
2022/11/16 11:31:25;;;;;;;20.57;11.13;;;;;;;6.31;100.00;100012.44;5075965;28;20051;-85
2022/11/16 11:33:58;;;;;;;21.13;11.47;;;;;;;6.34;100.00;100015.00;5079465;28;20039;-84
2022/11/16 11:36:27;;;;;;;72.67;38.67;;;;;;;6.37;100.00;100021.06;5071931;28;20046;-83
2022/11/16 11:39:04;;;;;;;21.00;11.77;;;;;;;6.39;100.00;100016.69;5067374;27;20296;-83
2022/11/16 11:41:42;;;;;;;21.10;11.33;;;;;;;6.20;100.00;100008.19;5099302;28;20515;-85
2022/11/16 11:44:12;;;;;;;21.57;11.47;;;;;;;6.18;100.00;100020.44;5097176;28;20036;-84
2022/11/16 11:46:41;;;;;;;20.37;12.10;;;;;;;6.16;100.00;100027.47;5096938;28;20027;-85
2022/11/16 11:49:35;;;;;;;23.50;13.73;;;;;;;6.19;100.00;100011.69;5094498;27;20137;-84
2022/11/16 11:52:08;;;;;;;20.27;12.23;;;;;;;6.20;100.00;100005.56;5122825;27;20043;-84
2022/11/16 11:54:38;;;;;;;21.57;11.93;;;;;;;6.20;100.00;100015.19;5082785;28;20039;-83
2022/11/16 11:57:14;;;;;;;20.53;11.77;;;;;;;6.20;100.00;100010.78;5077194;27;20040;-83
2022/11/16 11:59:41;;;;;;;31.10;16.67;;;;;;;6.30;100.00;100010.66;5080285;28;20050;-84
2022/11/16 12:02:38;;;;;;;23.43;11.67;;;;;;;6.27;100.00;100014.22;5081095;27;20558;-84
2022/11/16 12:05:42;;;;;;;19.17;11.17;;;;;;;6.18;100.00;100003.84;5084495;28;20059;-85
2022/11/16 12:08:37;;;;;;;22.07;12.57;;;;;;;6.27;100.00;100006.34;5107634;27;20035;-84
2022/11/16 12:11:28;;;;;;;18.40;10.50;;;;;;;6.23;100.00;100022.16;5076674;27;20054;-84